sensor_id;sensor_type;location;lat;lon;timestamp;P1;durP1;ratioP1;P2;durP2;ratioP2
21014;SDS011;19207;-23.482;-46.500;2023-01-01T00:01:41;65.47;;;36.83;;
21014;SDS011;19207;-23.482;-46.500;2023-01-01T00:04:28;78.70;;;38.75;;
21014;SDS011;19207;-23.482;-46.500;2023-01-01T00:07:16;58.22;;;32.15;;
21014;SDS011;19207;-23.482;-46.500;2023-01-01T00:10:02;55.88;;;26.65;;
21014;SDS011;19207;-23.482;-46.500;2023-01-01T00:13:11;50.83;;;26.12;;
21014;SDS011;19207;-23.482;-46.500;2023-01-01T00:16:08;52.10;;;25.88;;
21014;SDS011;19207;-23.482;-46.500;2023-01-01T00:18:55;54.08;;;25.17;;
21014;SDS011;19207;-23.482;-46.500;2023-01-01T00:21:42;63.60;;;30.75;;
21014;SDS011;19207;-23.482;-46.500;2023-01-01T00:24:30;110.20;;;48.03;;
21014;SDS011;19207;-23.482;-46.500;2023-01-01T00:27:17;114.30;;;49.03;;
21014;SDS011;19207;-23.482;-46.500;2023-01-01T00:30:04;110.25;;;48.80;;
21014;SDS011;19207;-23.482;-46.500;2023-01-01T00:32:51;101.85;;;45.70;;
21014;SDS011;19207;-23.482;-46.500;2023-01-01T00:35:37;118.68;;;52.08;;
21014;SDS011;19207;-23.482;-46.500;2023-01-01T00:38:24;109.72;;;46.95;;
21014;SDS011;19207;-23.482;-46.500;2023-01-01T00:41:11;99.05;;;43.22;;
21014;SDS011;19207;-23.482;-46.500;2023-01-01T00:43:57;103.32;;;43.05;;
21014;SDS011;19207;-23.482;-46.500;2023-01-01T00:46:44;100.85;;;44.53;;
21014;SDS011;19207;-23.482;-46.500;2023-01-01T00:49:31;113.30;;;44.95;;
21014;SDS011;19207;-23.482;-46.500;2023-01-01T00:52:18;123.75;;;51.42;;
21014;SDS011;19207;-23.482;-46.500;2023-01-01T00:55:05;131.18;;;54.20;;
21014;SDS011;19207;-23.482;-46.500;2023-01-01T00:57:52;147.98;;;63.50;;
21014;SDS011;19207;-23.482;-46.500;2023-01-01T01:00:38;150.60;;;70.82;;
21014;SDS011;19207;-23.482;-46.500;2023-01-01T01:03:25;144.77;;;64.78;;
21014;SDS011;19207;-23.482;-46.500;2023-01-01T01:06:13;162.50;;;75.05;;
21014;SDS011;19207;-23.482;-46.500;2023-01-01T01:09:01;149.52;;;66.43;;
21014;SDS011;19207;-23.482;-46.500;2023-01-01T01:11:48;157.10;;;66.78;;
21014;SDS011;19207;-23.482;-46.500;2023-01-01T01:14:34;157.68;;;76.25;;
21014;SDS011;19207;-23.482;-46.500;2023-01-01T01:17:21;177.45;;;86.90;;
21014;SDS011;19207;-23.482;-46.500;2023-01-01T01:20:07;193.15;;;87.82;;
21014;SDS011;19207;-23.482;-46.500;2023-01-01T01:22:54;193.15;;;93.30;;
21014;SDS011;19207;-23.482;-46.500;2023-01-01T01:25:41;215.95;;;103.30;;
21014;SDS011;19207;-23.482;-46.500;2023-01-01T01:28:28;195.87;;;91.25;;
21014;SDS011;19207;-23.482;-46.500;2023-01-01T01:31:15;183.62;;;86.47;;
21014;SDS011;19207;-23.482;-46.500;2023-01-01T01:34:02;162.02;;;74.93;;
21014;SDS011;19207;-23.482;-46.500;2023-01-01T01:36:48;163.77;;;73.47;;
21014;SDS011;19207;-23.482;-46.500;2023-01-01T01:39:37;152.93;;;71.07;;
21014;SDS011;19207;-23.482;-46.500;2023-01-01T01:42:24;147.30;;;68.25;;
21014;SDS011;19207;-23.482;-46.500;2023-01-01T01:45:10;167.87;;;76.78;;
21014;SDS011;19207;-23.482;-46.500;2023-01-01T01:47:57;201.82;;;95.10;;
21014;SDS011;19207;-23.482;-46.500;2023-01-01T01:50:44;163.02;;;78.97;;
21014;SDS011;19207;-23.482;-46.500;2023-01-01T01:53:32;241.38;;;113.20;;
21014;SDS011;19207;-23.482;-46.500;2023-01-01T01:56:25;190.75;;;94.80;;
21014;SDS011;19207;-23.482;-46.500;2023-01-01T01:59:13;212.12;;;102.82;;
21014;SDS011;19207;-23.482;-46.500;2023-01-01T02:02:00;214.45;;;102.18;;
21014;SDS011;19207;-23.482;-46.500;2023-01-01T02:04:47;231.65;;;114.45;;
21014;SDS011;19207;-23.482;-46.500;2023-01-01T02:07:34;232.32;;;119.47;;
21014;SDS011;19207;-23.482;-46.500;2023-01-01T02:10:22;239.68;;;122.07;;
21014;SDS011;19207;-23.482;-46.500;2023-01-01T02:13:09;239.05;;;117.43;;
21014;SDS011;19207;-23.482;-46.500;2023-01-01T02:16:00;282.65;;;135.20;;
21014;SDS011;19207;-23.482;-46.500;2023-01-01T02:18:54;301.77;;;142.68;;
21014;SDS011;19207;-23.482;-46.500;2023-01-01T02:21:55;307.05;;;145.57;;
21014;SDS011;19207;-23.482;-46.500;2023-01-01T02:31:13;252.60;;;124.47;;
21014;SDS011;19207;-23.482;-46.500;2023-01-01T02:34:03;279.20;;;132.68;;
21014;SDS011;19207;-23.482;-46.500;2023-01-01T02:36:51;283.73;;;129.87;;
21014;SDS011;19207;-23.482;-46.500;2023-01-01T02:39:43;260.42;;;125.35;;
21014;SDS011;19207;-23.482;-46.500;2023-01-01T02:42:30;241.85;;;116.75;;
21014;SDS011;19207;-23.482;-46.500;2023-01-01T02:45:18;261.33;;;123.78;;
21014;SDS011;19207;-23.482;-46.500;2023-01-01T02:48:05;228.30;;;109.85;;
21014;SDS011;19207;-23.482;-46.500;2023-01-01T02:50:53;228.23;;;112.47;;
21014;SDS011;19207;-23.482;-46.500;2023-01-01T02:53:42;188.65;;;92.03;;
21014;SDS011;19207;-23.482;-46.500;2023-01-01T02:57:06;178.23;;;91.90;;
21014;SDS011;19207;-23.482;-46.500;2023-01-01T03:12:09;467.92;;;234.12;;
21014;SDS011;19207;-23.482;-46.500;2023-01-01T03:14:59;386.02;;;191.25;;
21014;SDS011;19207;-23.482;-46.500;2023-01-01T03:20:58;338.67;;;166.98;;
21014;SDS011;19207;-23.482;-46.500;2023-01-01T03:23:48;268.48;;;134.40;;
21014;SDS011;19207;-23.482;-46.500;2023-01-01T03:26:39;270.05;;;130.50;;
21014;SDS011;19207;-23.482;-46.500;2023-01-01T03:29:26;195.35;;;98.12;;
21014;SDS011;19207;-23.482;-46.500;2023-01-01T03:32:17;189.37;;;90.22;;
21014;SDS011;19207;-23.482;-46.500;2023-01-01T03:35:05;191.82;;;93.75;;
21014;SDS011;19207;-23.482;-46.500;2023-01-01T03:37:53;178.35;;;89.37;;
21014;SDS011;19207;-23.482;-46.500;2023-01-01T03:40:41;181.65;;;91.45;;
21014;SDS011;19207;-23.482;-46.500;2023-01-01T03:46:41;185.88;;;88.35;;
21014;SDS011;19207;-23.482;-46.500;2023-01-01T03:49:28;175.95;;;82.32;;
21014;SDS011;19207;-23.482;-46.500;2023-01-01T03:55:30;187.25;;;92.35;;
21014;SDS011;19207;-23.482;-46.500;2023-01-01T03:58:20;140.93;;;62.35;;
21014;SDS011;19207;-23.482;-46.500;2023-01-01T04:03:56;135.60;;;64.03;;
21014;SDS011;19207;-23.482;-46.500;2023-01-01T04:06:44;136.73;;;62.42;;
21014;SDS011;19207;-23.482;-46.500;2023-01-01T04:09:32;142.30;;;67.75;;
21014;SDS011;19207;-23.482;-46.500;2023-01-01T04:12:22;140.25;;;68.85;;
21014;SDS011;19207;-23.482;-46.500;2023-01-01T04:15:09;141.60;;;69.45;;
21014;SDS011;19207;-23.482;-46.500;2023-01-01T04:17:55;140.00;;;69.50;;
21014;SDS011;19207;-23.482;-46.500;2023-01-01T04:20:42;144.20;;;69.35;;
21014;SDS011;19207;-23.482;-46.500;2023-01-01T04:23:29;145.05;;;65.55;;
21014;SDS011;19207;-23.482;-46.500;2023-01-01T04:26:15;106.40;;;53.08;;
21014;SDS011;19207;-23.482;-46.500;2023-01-01T04:29:02;102.72;;;48.85;;
21014;SDS011;19207;-23.482;-46.500;2023-01-01T04:31:49;111.97;;;51.35;;
21014;SDS011;19207;-23.482;-46.500;2023-01-01T04:34:36;96.90;;;46.00;;
21014;SDS011;19207;-23.482;-46.500;2023-01-01T04:37:22;86.68;;;42.72;;
21014;SDS011;19207;-23.482;-46.500;2023-01-01T04:40:09;89.18;;;41.58;;
21014;SDS011;19207;-23.482;-46.500;2023-01-01T04:42:56;90.12;;;42.03;;
21014;SDS011;19207;-23.482;-46.500;2023-01-01T04:45:42;81.18;;;36.75;;
21014;SDS011;19207;-23.482;-46.500;2023-01-01T04:48:29;68.97;;;34.42;;
21014;SDS011;19207;-23.482;-46.500;2023-01-01T04:51:19;61.03;;;30.35;;
21014;SDS011;19207;-23.482;-46.500;2023-01-01T04:54:05;60.92;;;28.42;;
21014;SDS011;19207;-23.482;-46.500;2023-01-01T04:56:53;61.20;;;30.98;;
21014;SDS011;19207;-23.482;-46.500;2023-01-01T04:59:39;67.78;;;30.85;;
21014;SDS011;19207;-23.482;-46.500;2023-01-01T05:02:26;60.88;;;30.08;;
21014;SDS011;19207;-23.482;-46.500;2023-01-01T05:05:14;54.88;;;26.42;;
21014;SDS011;19207;-23.482;-46.500;2023-01-01T05:08:03;47.35;;;25.92;;
21014;SDS011;19207;-23.482;-46.500;2023-01-01T05:10:50;50.45;;;26.08;;
21014;SDS011;19207;-23.482;-46.500;2023-01-01T05:13:38;54.58;;;27.50;;
21014;SDS011;19207;-23.482;-46.500;2023-01-01T05:16:26;54.05;;;25.62;;
21014;SDS011;19207;-23.482;-46.500;2023-01-01T05:19:12;51.08;;;26.58;;
21014;SDS011;19207;-23.482;-46.500;2023-01-01T05:21:59;51.63;;;25.40;;
21014;SDS011;19207;-23.482;-46.500;2023-01-01T05:24:49;51.63;;;24.95;;
21014;SDS011;19207;-23.482;-46.500;2023-01-01T05:27:37;47.00;;;22.75;;
21014;SDS011;19207;-23.482;-46.500;2023-01-01T05:30:24;45.20;;;23.30;;
21014;SDS011;19207;-23.482;-46.500;2023-01-01T05:33:11;45.60;;;23.12;;
21014;SDS011;19207;-23.482;-46.500;2023-01-01T05:35:58;46.03;;;22.58;;
21014;SDS011;19207;-23.482;-46.500;2023-01-01T05:38:44;39.35;;;21.37;;
21014;SDS011;19207;-23.482;-46.500;2023-01-01T05:41:31;51.75;;;22.85;;
21014;SDS011;19207;-23.482;-46.500;2023-01-01T05:44:20;44.45;;;21.90;;
21014;SDS011;19207;-23.482;-46.500;2023-01-01T05:47:07;38.95;;;21.48;;
21014;SDS011;19207;-23.482;-46.500;2023-01-01T05:49:54;44.92;;;21.80;;
21014;SDS011;19207;-23.482;-46.500;2023-01-01T05:52:40;53.40;;;24.10;;
21014;SDS011;19207;-23.482;-46.500;2023-01-01T05:55:28;38.42;;;21.15;;
21014;SDS011;19207;-23.482;-46.500;2023-01-01T05:58:15;43.58;;;22.13;;
21014;SDS011;19207;-23.482;-46.500;2023-01-01T06:01:17;46.72;;;22.70;;
21014;SDS011;19207;-23.482;-46.500;2023-01-01T06:04:04;53.13;;;23.40;;
21014;SDS011;19207;-23.482;-46.500;2023-01-01T06:06:51;57.20;;;25.35;;
21014;SDS011;19207;-23.482;-46.500;2023-01-01T06:09:38;47.92;;;24.20;;
21014;SDS011;19207;-23.482;-46.500;2023-01-01T06:12:24;48.97;;;24.98;;
21014;SDS011;19207;-23.482;-46.500;2023-01-01T06:15:11;55.90;;;24.63;;
21014;SDS011;19207;-23.482;-46.500;2023-01-01T06:17:58;56.55;;;26.30;;
21014;SDS011;19207;-23.482;-46.500;2023-01-01T06:20:44;48.78;;;24.67;;
21014;SDS011;19207;-23.482;-46.500;2023-01-01T06:23:31;52.83;;;23.15;;
21014;SDS011;19207;-23.482;-46.500;2023-01-01T06:26:19;46.55;;;23.05;;
21014;SDS011;19207;-23.482;-46.500;2023-01-01T06:29:07;63.83;;;29.02;;
21014;SDS011;19207;-23.482;-46.500;2023-01-01T06:31:53;47.83;;;22.60;;
21014;SDS011;19207;-23.482;-46.500;2023-01-01T06:34:40;43.65;;;22.15;;
21014;SDS011;19207;-23.482;-46.500;2023-01-01T06:37:28;38.58;;;19.83;;
21014;SDS011;19207;-23.482;-46.500;2023-01-01T06:40:17;40.70;;;20.60;;
21014;SDS011;19207;-23.482;-46.500;2023-01-01T06:43:03;41.90;;;20.83;;
21014;SDS011;19207;-23.482;-46.500;2023-01-01T06:46:03;40.78;;;20.10;;
21014;SDS011;19207;-23.482;-46.500;2023-01-01T06:48:54;40.08;;;20.58;;
21014;SDS011;19207;-23.482;-46.500;2023-01-01T06:51:42;46.20;;;21.10;;
21014;SDS011;19207;-23.482;-46.500;2023-01-01T06:54:28;50.35;;;21.00;;
21014;SDS011;19207;-23.482;-46.500;2023-01-01T06:57:15;43.53;;;20.55;;
21014;SDS011;19207;-23.482;-46.500;2023-01-01T07:00:01;48.65;;;19.92;;
21014;SDS011;19207;-23.482;-46.500;2023-01-01T07:02:48;42.40;;;19.48;;
21014;SDS011;19207;-23.482;-46.500;2023-01-01T07:05:35;40.08;;;18.62;;
21014;SDS011;19207;-23.482;-46.500;2023-01-01T07:08:22;44.00;;;19.67;;
21014;SDS011;19207;-23.482;-46.500;2023-01-01T07:11:09;39.42;;;18.60;;
21014;SDS011;19207;-23.482;-46.500;2023-01-01T07:13:56;37.15;;;18.85;;
21014;SDS011;19207;-23.482;-46.500;2023-01-01T07:16:42;36.17;;;18.60;;
21014;SDS011;19207;-23.482;-46.500;2023-01-01T07:19:29;38.25;;;18.15;;
21014;SDS011;19207;-23.482;-46.500;2023-01-01T07:22:16;46.00;;;22.20;;
21014;SDS011;19207;-23.482;-46.500;2023-01-01T07:25:02;58.95;;;29.20;;
21014;SDS011;19207;-23.482;-46.500;2023-01-01T07:27:49;107.35;;;50.30;;
21014;SDS011;19207;-23.482;-46.500;2023-01-01T07:30:35;80.93;;;36.65;;
21014;SDS011;19207;-23.482;-46.500;2023-01-01T07:33:22;52.60;;;25.17;;
21014;SDS011;19207;-23.482;-46.500;2023-01-01T07:36:09;54.63;;;26.80;;
21014;SDS011;19207;-23.482;-46.500;2023-01-01T07:38:56;52.45;;;23.35;;
21014;SDS011;19207;-23.482;-46.500;2023-01-01T07:41:42;58.92;;;26.42;;
21014;SDS011;19207;-23.482;-46.500;2023-01-01T07:44:31;57.62;;;25.98;;
21014;SDS011;19207;-23.482;-46.500;2023-01-01T07:47:19;57.88;;;26.00;;
21014;SDS011;19207;-23.482;-46.500;2023-01-01T07:50:09;59.15;;;27.33;;
21014;SDS011;19207;-23.482;-46.500;2023-01-01T07:53:00;52.60;;;25.20;;
21014;SDS011;19207;-23.482;-46.500;2023-01-01T07:55:47;49.65;;;22.83;;
21014;SDS011;19207;-23.482;-46.500;2023-01-01T07:58:33;52.05;;;23.33;;
21014;SDS011;19207;-23.482;-46.500;2023-01-01T08:01:20;53.33;;;21.87;;
21014;SDS011;19207;-23.482;-46.500;2023-01-01T08:04:07;47.60;;;21.90;;
21014;SDS011;19207;-23.482;-46.500;2023-01-01T08:06:54;43.08;;;20.77;;
21014;SDS011;19207;-23.482;-46.500;2023-01-01T08:09:40;43.42;;;20.85;;
21014;SDS011;19207;-23.482;-46.500;2023-01-01T08:12:27;50.25;;;22.08;;
21014;SDS011;19207;-23.482;-46.500;2023-01-01T08:15:14;45.45;;;21.15;;
21014;SDS011;19207;-23.482;-46.500;2023-01-01T08:18:02;43.78;;;20.65;;
21014;SDS011;19207;-23.482;-46.500;2023-01-01T08:20:49;51.53;;;21.73;;
21014;SDS011;19207;-23.482;-46.500;2023-01-01T08:23:36;46.25;;;20.98;;
21014;SDS011;19207;-23.482;-46.500;2023-01-01T08:26:30;40.33;;;19.90;;
21014;SDS011;19207;-23.482;-46.500;2023-01-01T08:29:17;45.20;;;20.12;;
21014;SDS011;19207;-23.482;-46.500;2023-01-01T08:32:04;44.80;;;20.95;;
21014;SDS011;19207;-23.482;-46.500;2023-01-01T08:34:50;51.28;;;22.10;;
21014;SDS011;19207;-23.482;-46.500;2023-01-01T08:37:37;54.25;;;23.80;;
21014;SDS011;19207;-23.482;-46.500;2023-01-01T08:40:24;54.35;;;23.20;;
21014;SDS011;19207;-23.482;-46.500;2023-01-01T08:43:11;66.10;;;25.95;;
21014;SDS011;19207;-23.482;-46.500;2023-01-01T08:45:57;61.80;;;26.70;;
21014;SDS011;19207;-23.482;-46.500;2023-01-01T08:48:44;80.50;;;30.42;;
21014;SDS011;19207;-23.482;-46.500;2023-01-01T08:51:31;70.95;;;26.95;;
21014;SDS011;19207;-23.482;-46.500;2023-01-01T08:54:17;57.78;;;24.92;;
21014;SDS011;19207;-23.482;-46.500;2023-01-01T08:57:04;60.97;;;25.17;;
21014;SDS011;19207;-23.482;-46.500;2023-01-01T08:59:51;61.47;;;25.35;;
21014;SDS011;19207;-23.482;-46.500;2023-01-01T09:02:38;67.70;;;26.20;;
21014;SDS011;19207;-23.482;-46.500;2023-01-01T09:05:25;59.85;;;25.02;;
21014;SDS011;19207;-23.482;-46.500;2023-01-01T09:08:12;54.60;;;24.27;;
21014;SDS011;19207;-23.482;-46.500;2023-01-01T09:11:00;62.15;;;23.67;;
21014;SDS011;19207;-23.482;-46.500;2023-01-01T09:13:47;59.22;;;23.67;;
21014;SDS011;19207;-23.482;-46.500;2023-01-01T09:16:33;57.05;;;24.00;;
21014;SDS011;19207;-23.482;-46.500;2023-01-01T09:19:21;49.53;;;22.65;;
21014;SDS011;19207;-23.482;-46.500;2023-01-01T09:22:08;51.58;;;22.67;;
21014;SDS011;19207;-23.482;-46.500;2023-01-01T09:24:55;50.55;;;22.73;;
21014;SDS011;19207;-23.482;-46.500;2023-01-01T09:27:42;58.10;;;23.80;;
21014;SDS011;19207;-23.482;-46.500;2023-01-01T09:30:28;58.22;;;26.45;;
21014;SDS011;19207;-23.482;-46.500;2023-01-01T09:33:15;50.65;;;23.65;;
21014;SDS011;19207;-23.482;-46.500;2023-01-01T09:36:24;56.58;;;23.90;;
21014;SDS011;19207;-23.482;-46.500;2023-01-01T09:39:12;48.95;;;22.08;;
21014;SDS011;19207;-23.482;-46.500;2023-01-01T09:42:14;47.88;;;22.95;;
21014;SDS011;19207;-23.482;-46.500;2023-01-01T09:45:10;44.90;;;22.98;;
21014;SDS011;19207;-23.482;-46.500;2023-01-01T09:48:04;46.20;;;23.85;;
21014;SDS011;19207;-23.482;-46.500;2023-01-01T09:50:51;39.35;;;21.12;;
21014;SDS011;19207;-23.482;-46.500;2023-01-01T09:53:44;37.08;;;19.45;;
21014;SDS011;19207;-23.482;-46.500;2023-01-01T09:56:33;36.40;;;18.08;;
21014;SDS011;19207;-23.482;-46.500;2023-01-01T09:59:21;36.67;;;18.58;;
21014;SDS011;19207;-23.482;-46.500;2023-01-01T10:08:05;31.95;;;16.52;;
21014;SDS011;19207;-23.482;-46.500;2023-01-01T10:13:41;27.62;;;15.30;;
21014;SDS011;19207;-23.482;-46.500;2023-01-01T10:16:33;32.78;;;16.35;;
21014;SDS011;19207;-23.482;-46.500;2023-01-01T10:19:40;31.33;;;15.73;;
21014;SDS011;19207;-23.482;-46.500;2023-01-01T10:22:51;28.40;;;14.98;;
21014;SDS011;19207;-23.482;-46.500;2023-01-01T10:25:35;35.15;;;15.43;;
21014;SDS011;19207;-23.482;-46.500;2023-01-01T10:31:33;29.98;;;17.12;;
21014;SDS011;19207;-23.482;-46.500;2023-01-01T10:34:24;34.40;;;18.17;;
21014;SDS011;19207;-23.482;-46.500;2023-01-01T10:37:11;34.03;;;17.15;;
21014;SDS011;19207;-23.482;-46.500;2023-01-01T10:40:02;31.02;;;17.02;;
21014;SDS011;19207;-23.482;-46.500;2023-01-01T10:42:53;32.35;;;16.37;;
21014;SDS011;19207;-23.482;-46.500;2023-01-01T10:45:42;30.35;;;15.52;;
21014;SDS011;19207;-23.482;-46.500;2023-01-01T10:48:30;27.23;;;14.05;;
21014;SDS011;19207;-23.482;-46.500;2023-01-01T10:51:24;29.70;;;16.40;;
21014;SDS011;19207;-23.482;-46.500;2023-01-01T10:57:13;27.73;;;14.35;;
21014;SDS011;19207;-23.482;-46.500;2023-01-01T11:00:10;29.35;;;14.63;;
21014;SDS011;19207;-23.482;-46.500;2023-01-01T11:06:00;34.45;;;17.83;;
21014;SDS011;19207;-23.482;-46.500;2023-01-01T11:08:48;27.67;;;15.60;;
21014;SDS011;19207;-23.482;-46.500;2023-01-01T11:14:25;31.52;;;16.67;;
21014;SDS011;19207;-23.482;-46.500;2023-01-01T11:17:13;31.58;;;16.40;;
21014;SDS011;19207;-23.482;-46.500;2023-01-01T11:20:06;26.80;;;16.27;;
21014;SDS011;19207;-23.482;-46.500;2023-01-01T11:22:53;31.10;;;16.12;;
21014;SDS011;19207;-23.482;-46.500;2023-01-01T11:25:39;36.22;;;17.00;;
21014;SDS011;19207;-23.482;-46.500;2023-01-01T11:28:27;38.05;;;16.83;;
21014;SDS011;19207;-23.482;-46.500;2023-01-01T11:31:16;31.65;;;17.77;;
21014;SDS011;19207;-23.482;-46.500;2023-01-01T11:34:04;26.50;;;14.48;;
21014;SDS011;19207;-23.482;-46.500;2023-01-01T11:37:31;31.23;;;15.65;;
21014;SDS011;19207;-23.482;-46.500;2023-01-01T11:43:22;22.77;;;12.73;;
21014;SDS011;19207;-23.482;-46.500;2023-01-01T11:46:11;30.00;;;15.82;;
21014;SDS011;19207;-23.482;-46.500;2023-01-01T11:48:59;27.10;;;15.30;;
21014;SDS011;19207;-23.482;-46.500;2023-01-01T11:51:47;32.10;;;16.52;;
21014;SDS011;19207;-23.482;-46.500;2023-01-01T11:54:34;28.38;;;13.90;;
21014;SDS011;19207;-23.482;-46.500;2023-01-01T11:57:22;24.90;;;14.32;;
21014;SDS011;19207;-23.482;-46.500;2023-01-01T12:00:11;27.67;;;14.38;;
21014;SDS011;19207;-23.482;-46.500;2023-01-01T12:03:10;28.92;;;15.52;;
21014;SDS011;19207;-23.482;-46.500;2023-01-01T12:06:08;32.72;;;16.05;;
21014;SDS011;19207;-23.482;-46.500;2023-01-01T12:09:06;30.85;;;15.43;;
21014;SDS011;19207;-23.482;-46.500;2023-01-01T12:12:05;28.92;;;14.63;;
21014;SDS011;19207;-23.482;-46.500;2023-01-01T12:17:41;23.80;;;13.43;;
21014;SDS011;19207;-23.482;-46.500;2023-01-01T12:20:47;25.00;;;12.93;;
21014;SDS011;19207;-23.482;-46.500;2023-01-01T12:23:35;23.85;;;12.85;;
21014;SDS011;19207;-23.482;-46.500;2023-01-01T12:29:12;23.40;;;11.55;;
21014;SDS011;19207;-23.482;-46.500;2023-01-01T12:35:19;19.75;;;10.98;;
21014;SDS011;19207;-23.482;-46.500;2023-01-01T12:50:03;20.98;;;10.77;;
21014;SDS011;19207;-23.482;-46.500;2023-01-01T12:58:59;18.15;;;9.82;;
21014;SDS011;19207;-23.482;-46.500;2023-01-01T13:01:47;20.88;;;9.60;;
21014;SDS011;19207;-23.482;-46.500;2023-01-01T13:04:35;19.02;;;9.85;;
21014;SDS011;19207;-23.482;-46.500;2023-01-01T13:07:32;18.35;;;9.80;;
21014;SDS011;19207;-23.482;-46.500;2023-01-01T13:10:33;20.10;;;10.45;;
21014;SDS011;19207;-23.482;-46.500;2023-01-01T13:13:20;17.70;;;9.52;;
21014;SDS011;19207;-23.482;-46.500;2023-01-01T13:16:09;16.23;;;8.73;;
21014;SDS011;19207;-23.482;-46.500;2023-01-01T13:18:56;14.45;;;8.05;;
21014;SDS011;19207;-23.482;-46.500;2023-01-01T13:21:43;15.68;;;8.90;;
21014;SDS011;19207;-23.482;-46.500;2023-01-01T13:24:30;15.25;;;8.77;;
21014;SDS011;19207;-23.482;-46.500;2023-01-01T13:27:17;17.00;;;10.18;;
21014;SDS011;19207;-23.482;-46.500;2023-01-01T13:33:29;16.23;;;7.85;;
21014;SDS011;19207;-23.482;-46.500;2023-01-01T13:39:05;12.75;;;7.47;;
21014;SDS011;19207;-23.482;-46.500;2023-01-01T13:41:52;11.70;;;7.30;;
21014;SDS011;19207;-23.482;-46.500;2023-01-01T13:44:39;11.43;;;6.93;;
21014;SDS011;19207;-23.482;-46.500;2023-01-01T13:47:38;11.00;;;6.90;;
21014;SDS011;19207;-23.482;-46.500;2023-01-01T13:53:46;10.82;;;6.62;;
21014;SDS011;19207;-23.482;-46.500;2023-01-01T13:59:56;9.77;;;6.55;;
21014;SDS011;19207;-23.482;-46.500;2023-01-01T14:03:02;9.10;;;6.50;;
21014;SDS011;19207;-23.482;-46.500;2023-01-01T14:08:39;10.50;;;6.97;;
21014;SDS011;19207;-23.482;-46.500;2023-01-01T14:11:26;9.38;;;6.93;;
21014;SDS011;19207;-23.482;-46.500;2023-01-01T14:14:26;8.52;;;6.90;;
21014;SDS011;19207;-23.482;-46.500;2023-01-01T14:17:14;12.27;;;6.85;;
21014;SDS011;19207;-23.482;-46.500;2023-01-01T14:20:03;11.65;;;7.47;;
21014;SDS011;19207;-23.482;-46.500;2023-01-01T14:22:50;11.38;;;7.15;;
21014;SDS011;19207;-23.482;-46.500;2023-01-01T14:25:38;11.82;;;7.78;;
21014;SDS011;19207;-23.482;-46.500;2023-01-01T14:28:26;9.23;;;7.15;;
21014;SDS011;19207;-23.482;-46.500;2023-01-01T14:31:18;11.18;;;7.53;;
21014;SDS011;19207;-23.482;-46.500;2023-01-01T14:37:02;11.77;;;7.25;;
21014;SDS011;19207;-23.482;-46.500;2023-01-01T14:40:14;14.00;;;7.37;;
21014;SDS011;19207;-23.482;-46.500;2023-01-01T14:43:03;11.00;;;7.10;;
21014;SDS011;19207;-23.482;-46.500;2023-01-01T14:45:56;10.27;;;6.72;;
21014;SDS011;19207;-23.482;-46.500;2023-01-01T14:48:43;9.45;;;7.05;;
21014;SDS011;19207;-23.482;-46.500;2023-01-01T14:51:30;9.02;;;7.00;;
21014;SDS011;19207;-23.482;-46.500;2023-01-01T14:54:18;10.02;;;7.32;;
21014;SDS011;19207;-23.482;-46.500;2023-01-01T14:57:09;11.65;;;6.95;;
21014;SDS011;19207;-23.482;-46.500;2023-01-01T14:59:57;10.68;;;6.97;;
21014;SDS011;19207;-23.482;-46.500;2023-01-01T15:02:43;11.68;;;7.12;;
21014;SDS011;19207;-23.482;-46.500;2023-01-01T15:05:31;9.93;;;6.85;;
21014;SDS011;19207;-23.482;-46.500;2023-01-01T15:08:19;9.18;;;6.62;;
21014;SDS011;19207;-23.482;-46.500;2023-01-01T15:11:05;9.27;;;6.72;;
21014;SDS011;19207;-23.482;-46.500;2023-01-01T15:14:01;10.05;;;6.45;;
21014;SDS011;19207;-23.482;-46.500;2023-01-01T15:17:04;10.73;;;6.45;;
21014;SDS011;19207;-23.482;-46.500;2023-01-01T15:22:47;10.07;;;6.28;;
21014;SDS011;19207;-23.482;-46.500;2023-01-01T15:25:34;8.10;;;6.10;;
21014;SDS011;19207;-23.482;-46.500;2023-01-01T15:28:22;13.02;;;6.30;;
21014;SDS011;19207;-23.482;-46.500;2023-01-01T15:31:09;9.32;;;5.70;;
21014;SDS011;19207;-23.482;-46.500;2023-01-01T15:33:56;9.00;;;5.95;;
21014;SDS011;19207;-23.482;-46.500;2023-01-01T15:36:43;11.25;;;6.20;;
21014;SDS011;19207;-23.482;-46.500;2023-01-01T15:39:31;7.25;;;5.70;;
21014;SDS011;19207;-23.482;-46.500;2023-01-01T15:48:20;7.03;;;5.60;;
21014;SDS011;19207;-23.482;-46.500;2023-01-01T15:51:13;7.20;;;5.65;;
21014;SDS011;19207;-23.482;-46.500;2023-01-01T15:54:01;8.43;;;6.03;;
21014;SDS011;19207;-23.482;-46.500;2023-01-01T15:56:49;11.88;;;5.68;;
21014;SDS011;19207;-23.482;-46.500;2023-01-01T15:59:36;11.05;;;6.50;;
21014;SDS011;19207;-23.482;-46.500;2023-01-01T16:02:25;10.73;;;6.72;;
21014;SDS011;19207;-23.482;-46.500;2023-01-01T16:05:17;12.70;;;7.20;;
21014;SDS011;19207;-23.482;-46.500;2023-01-01T16:08:04;11.65;;;7.07;;
21014;SDS011;19207;-23.482;-46.500;2023-01-01T16:10:51;10.43;;;6.70;;
21014;SDS011;19207;-23.482;-46.500;2023-01-01T16:13:38;10.15;;;6.87;;
21014;SDS011;19207;-23.482;-46.500;2023-01-01T16:19:15;14.63;;;8.32;;
21014;SDS011;19207;-23.482;-46.500;2023-01-01T16:22:02;12.48;;;8.05;;
21014;SDS011;19207;-23.482;-46.500;2023-01-01T16:24:49;10.27;;;5.72;;
21014;SDS011;19207;-23.482;-46.500;2023-01-01T16:27:36;8.45;;;5.57;;
21014;SDS011;19207;-23.482;-46.500;2023-01-01T16:30:24;8.20;;;5.85;;
21014;SDS011;19207;-23.482;-46.500;2023-01-01T16:33:15;6.93;;;5.70;;
21014;SDS011;19207;-23.482;-46.500;2023-01-01T16:36:02;14.45;;;7.75;;
21014;SDS011;19207;-23.482;-46.500;2023-01-01T16:38:49;14.07;;;9.02;;
21014;SDS011;19207;-23.482;-46.500;2023-01-01T16:41:36;12.98;;;7.18;;
21014;SDS011;19207;-23.482;-46.500;2023-01-01T16:44:24;13.05;;;7.95;;
21014;SDS011;19207;-23.482;-46.500;2023-01-01T16:47:10;10.43;;;6.30;;
21014;SDS011;19207;-23.482;-46.500;2023-01-01T16:49:57;23.25;;;14.02;;
21014;SDS011;19207;-23.482;-46.500;2023-01-01T16:52:43;21.75;;;13.55;;
21014;SDS011;19207;-23.482;-46.500;2023-01-01T16:55:30;16.48;;;9.98;;
21014;SDS011;19207;-23.482;-46.500;2023-01-01T16:58:17;20.42;;;13.05;;
21014;SDS011;19207;-23.482;-46.500;2023-01-01T17:01:04;19.73;;;12.57;;
21014;SDS011;19207;-23.482;-46.500;2023-01-01T17:03:51;16.67;;;9.95;;
21014;SDS011;19207;-23.482;-46.500;2023-01-01T17:06:38;13.57;;;9.65;;
21014;SDS011;19207;-23.482;-46.500;2023-01-01T17:09:24;19.55;;;11.35;;
21014;SDS011;19207;-23.482;-46.500;2023-01-01T17:12:11;17.27;;;10.00;;
21014;SDS011;19207;-23.482;-46.500;2023-01-01T17:14:57;19.17;;;11.12;;
21014;SDS011;19207;-23.482;-46.500;2023-01-01T17:17:44;18.75;;;10.60;;
21014;SDS011;19207;-23.482;-46.500;2023-01-01T17:20:32;21.60;;;13.43;;
21014;SDS011;19207;-23.482;-46.500;2023-01-01T17:23:19;25.60;;;13.98;;
21014;SDS011;19207;-23.482;-46.500;2023-01-01T17:26:07;30.08;;;17.45;;
21014;SDS011;19207;-23.482;-46.500;2023-01-01T17:28:54;25.33;;;14.77;;
21014;SDS011;19207;-23.482;-46.500;2023-01-01T17:31:41;27.27;;;16.23;;
21014;SDS011;19207;-23.482;-46.500;2023-01-01T17:34:28;34.38;;;19.52;;
21014;SDS011;19207;-23.482;-46.500;2023-01-01T17:37:14;30.90;;;17.85;;